Terminal Aerodrome Forecast
Issued by NWS

Current Version | Previous Version | Text Only | Print | Product List | Glossary On
Versions: 1 2 3 4 5 6 7 8 9 10 11 12 13 14 15
000
FTUS46 KSGX 031228 AAA
TAFONT
TAF AMD
KONT 031228Z 0312/0418 VRB03KT P6SM SCT012
     FM031300 VRB03KT P6SM BKN012
     FM031700 VRB06KT P6SM SCT015
     FM031900 25012G20KT P6SM SKC
     FM040400 26006KT P6SM SCT012
     FM040600 VRB05KT P6SM OVC015=

USA.gov is the U.S. government's official web portal to all federal, state and local government web resources and services.